sensor_id;sensor_type;location;lat;lon;timestamp;temperature;humidity
51725;DHT22;37801;53.224;6.552;2023-06-10T00:01:52;16.20;1.00
51725;DHT22;37801;53.224;6.552;2023-06-10T00:04:20;16.20;1.00
51725;DHT22;37801;53.224;6.552;2023-06-10T00:06:46;16.20;1.00
51725;DHT22;37801;53.224;6.552;2023-06-10T00:09:15;16.20;1.00
51725;DHT22;37801;53.224;6.552;2023-06-10T00:11:41;16.10;1.00
51725;DHT22;37801;53.224;6.552;2023-06-10T00:14:07;16.10;1.00
51725;DHT22;37801;53.224;6.552;2023-06-10T00:16:34;16.10;1.00
51725;DHT22;37801;53.224;6.552;2023-06-10T00:19:00;16.10;1.00
51725;DHT22;37801;53.224;6.552;2023-06-10T00:21:34;16.00;1.00
51725;DHT22;37801;53.224;6.552;2023-06-10T00:24:11;16.10;1.00
51725;DHT22;37801;53.224;6.552;2023-06-10T00:26:39;16.00;1.00
51725;DHT22;37801;53.224;6.552;2023-06-10T00:29:06;16.00;1.00
51725;DHT22;37801;53.224;6.552;2023-06-10T00:31:36;16.00;1.00
51725;DHT22;37801;53.224;6.552;2023-06-10T00:34:02;16.00;1.00
51725;DHT22;37801;53.224;6.552;2023-06-10T00:36:28;15.90;1.00
51725;DHT22;37801;53.224;6.552;2023-06-10T00:38:54;16.00;1.00
51725;DHT22;37801;53.224;6.552;2023-06-10T00:41:20;15.90;1.00
51725;DHT22;37801;53.224;6.552;2023-06-10T00:43:45;15.90;1.00
51725;DHT22;37801;53.224;6.552;2023-06-10T00:46:12;15.90;1.00
51725;DHT22;37801;53.224;6.552;2023-06-10T00:48:40;15.90;1.00
51725;DHT22;37801;53.224;6.552;2023-06-10T00:51:08;15.90;1.00
51725;DHT22;37801;53.224;6.552;2023-06-10T00:53:36;15.80;1.00
51725;DHT22;37801;53.224;6.552;2023-06-10T00:56:03;15.80;1.00
51725;DHT22;37801;53.224;6.552;2023-06-10T00:58:29;15.80;1.00
51725;DHT22;37801;53.224;6.552;2023-06-10T01:00:55;15.80;1.00
51725;DHT22;37801;53.224;6.552;2023-06-10T01:03:20;15.80;1.00
51725;DHT22;37801;53.224;6.552;2023-06-10T01:05:53;15.80;1.00
51725;DHT22;37801;53.224;6.552;2023-06-10T01:11:00;15.70;1.00
51725;DHT22;37801;53.224;6.552;2023-06-10T01:13:27;15.70;1.00
51725;DHT22;37801;53.224;6.552;2023-06-10T01:15:57;15.60;1.00
51725;DHT22;37801;53.224;6.552;2023-06-10T01:18:29;15.70;1.00
51725;DHT22;37801;53.224;6.552;2023-06-10T01:20:56;15.60;1.00
51725;DHT22;37801;53.224;6.552;2023-06-10T01:23:23;15.60;1.00
51725;DHT22;37801;53.224;6.552;2023-06-10T01:26:09;15.60;1.00
51725;DHT22;37801;53.224;6.552;2023-06-10T01:31:46;15.50;1.00
51725;DHT22;37801;53.224;6.552;2023-06-10T01:34:07;15.50;1.00
51725;DHT22;37801;53.224;6.552;2023-06-10T01:36:35;15.50;1.00
51725;DHT22;37801;53.224;6.552;2023-06-10T01:39:02;15.50;1.00
51725;DHT22;37801;53.224;6.552;2023-06-10T01:41:29;15.50;1.00
51725;DHT22;37801;53.224;6.552;2023-06-10T01:43:56;15.40;1.00
51725;DHT22;37801;53.224;6.552;2023-06-10T01:46:22;15.40;1.00
51725;DHT22;37801;53.224;6.552;2023-06-10T01:48:48;15.40;1.00
51725;DHT22;37801;53.224;6.552;2023-06-10T01:51:14;15.40;1.00
51725;DHT22;37801;53.224;6.552;2023-06-10T01:53:39;15.40;1.00
51725;DHT22;37801;53.224;6.552;2023-06-10T01:56:05;15.30;1.00
51725;DHT22;37801;53.224;6.552;2023-06-10T01:58:31;15.30;1.00
51725;DHT22;37801;53.224;6.552;2023-06-10T02:00:57;15.30;1.00
51725;DHT22;37801;53.224;6.552;2023-06-10T02:03:22;15.30;1.00
51725;DHT22;37801;53.224;6.552;2023-06-10T02:05:49;15.30;1.00
51725;DHT22;37801;53.224;6.552;2023-06-10T02:08:14;15.30;1.00
51725;DHT22;37801;53.224;6.552;2023-06-10T02:10:40;15.30;1.00
51725;DHT22;37801;53.224;6.552;2023-06-10T02:13:06;15.30;1.00
51725;DHT22;37801;53.224;6.552;2023-06-10T02:15:32;15.30;1.00
51725;DHT22;37801;53.224;6.552;2023-06-10T02:17:58;15.20;1.00
51725;DHT22;37801;53.224;6.552;2023-06-10T02:20:25;15.20;1.00
51725;DHT22;37801;53.224;6.552;2023-06-10T02:22:50;15.20;1.00
51725;DHT22;37801;53.224;6.552;2023-06-10T02:25:16;15.20;1.00
51725;DHT22;37801;53.224;6.552;2023-06-10T02:27:42;15.20;1.00
51725;DHT22;37801;53.224;6.552;2023-06-10T02:30:08;15.20;1.00
51725;DHT22;37801;53.224;6.552;2023-06-10T02:32:36;15.10;1.00
51725;DHT22;37801;53.224;6.552;2023-06-10T02:35:01;15.20;1.00
51725;DHT22;37801;53.224;6.552;2023-06-10T02:37:29;15.10;1.00
51725;DHT22;37801;53.224;6.552;2023-06-10T02:39:55;15.10;1.00
51725;DHT22;37801;53.224;6.552;2023-06-10T02:42:21;15.10;1.00
51725;DHT22;37801;53.224;6.552;2023-06-10T02:44:47;15.20;1.00
51725;DHT22;37801;53.224;6.552;2023-06-10T02:47:12;15.10;1.00
51725;DHT22;37801;53.224;6.552;2023-06-10T02:49:38;15.10;1.00
51725;DHT22;37801;53.224;6.552;2023-06-10T02:52:04;15.10;1.00
51725;DHT22;37801;53.224;6.552;2023-06-10T02:54:30;15.10;1.00
51725;DHT22;37801;53.224;6.552;2023-06-10T02:56:55;15.10;1.00
51725;DHT22;37801;53.224;6.552;2023-06-10T02:59:21;15.10;1.00
51725;DHT22;37801;53.224;6.552;2023-06-10T03:01:47;15.00;1.00
51725;DHT22;37801;53.224;6.552;2023-06-10T03:04:13;15.00;1.00
51725;DHT22;37801;53.224;6.552;2023-06-10T03:06:40;15.00;1.00
51725;DHT22;37801;53.224;6.552;2023-06-10T03:09:06;15.00;1.00
51725;DHT22;37801;53.224;6.552;2023-06-10T03:11:35;15.00;1.00
51725;DHT22;37801;53.224;6.552;2023-06-10T03:14:01;15.00;1.00
51725;DHT22;37801;53.224;6.552;2023-06-10T03:16:26;14.90;1.00
51725;DHT22;37801;53.224;6.552;2023-06-10T03:18:53;14.90;1.00
51725;DHT22;37801;53.224;6.552;2023-06-10T03:21:19;14.90;1.00
51725;DHT22;37801;53.224;6.552;2023-06-10T03:23:45;14.90;1.00
51725;DHT22;37801;53.224;6.552;2023-06-10T03:26:11;14.90;1.00
51725;DHT22;37801;53.224;6.552;2023-06-10T03:28:40;14.90;1.00
51725;DHT22;37801;53.224;6.552;2023-06-10T03:31:06;14.90;1.00
51725;DHT22;37801;53.224;6.552;2023-06-10T03:33:32;14.90;1.00
51725;DHT22;37801;53.224;6.552;2023-06-10T03:35:58;14.90;1.00
51725;DHT22;37801;53.224;6.552;2023-06-10T03:38:24;14.90;1.00
51725;DHT22;37801;53.224;6.552;2023-06-10T03:40:50;14.90;1.00
51725;DHT22;37801;53.224;6.552;2023-06-10T03:43:16;14.90;1.00
51725;DHT22;37801;53.224;6.552;2023-06-10T03:45:41;14.90;1.00
51725;DHT22;37801;53.224;6.552;2023-06-10T03:48:07;14.90;1.00
51725;DHT22;37801;53.224;6.552;2023-06-10T03:50:34;14.90;1.00
51725;DHT22;37801;53.224;6.552;2023-06-10T03:53:01;14.90;1.00
51725;DHT22;37801;53.224;6.552;2023-06-10T03:55:27;14.90;5.20
51725;DHT22;37801;53.224;6.552;2023-06-10T03:57:53;14.80;6.50
51725;DHT22;37801;53.224;6.552;2023-06-10T04:00:19;14.90;7.60
51725;DHT22;37801;53.224;6.552;2023-06-10T04:02:46;14.90;14.40
51725;DHT22;37801;53.224;6.552;2023-06-10T04:05:14;14.90;16.00
51725;DHT22;37801;53.224;6.552;2023-06-10T04:07:41;14.90;20.40
51725;DHT22;37801;53.224;6.552;2023-06-10T04:10:08;14.90;26.30
51725;DHT22;37801;53.224;6.552;2023-06-10T04:12:34;14.90;31.80
51725;DHT22;37801;53.224;6.552;2023-06-10T04:15:01;14.80;35.30
51725;DHT22;37801;53.224;6.552;2023-06-10T04:17:27;14.80;36.50
51725;DHT22;37801;53.224;6.552;2023-06-10T04:19:52;14.90;41.50
51725;DHT22;37801;53.224;6.552;2023-06-10T04:22:20;14.80;45.60
51725;DHT22;37801;53.224;6.552;2023-06-10T04:24:46;14.80;49.50
51725;DHT22;37801;53.224;6.552;2023-06-10T04:27:12;14.80;54.60
51725;DHT22;37801;53.224;6.552;2023-06-10T04:29:37;14.90;56.20
51725;DHT22;37801;53.224;6.552;2023-06-10T04:32:03;14.80;57.40
51725;DHT22;37801;53.224;6.552;2023-06-10T04:34:31;14.90;62.20
51725;DHT22;37801;53.224;6.552;2023-06-10T04:36:56;14.90;64.00
51725;DHT22;37801;53.224;6.552;2023-06-10T04:39:22;14.90;67.90
51725;DHT22;37801;53.224;6.552;2023-06-10T04:41:48;14.90;69.50
51725;DHT22;37801;53.224;6.552;2023-06-10T04:44:14;14.90;68.80
51725;DHT22;37801;53.224;6.552;2023-06-10T04:46:39;14.90;73.80
51725;DHT22;37801;53.224;6.552;2023-06-10T04:49:05;14.90;76.40
51725;DHT22;37801;53.224;6.552;2023-06-10T04:51:31;14.90;78.30
51725;DHT22;37801;53.224;6.552;2023-06-10T04:53:58;14.90;80.90
51725;DHT22;37801;53.224;6.552;2023-06-10T04:56:25;14.90;82.10
51725;DHT22;37801;53.224;6.552;2023-06-10T04:58:50;14.90;84.40
51725;DHT22;37801;53.224;6.552;2023-06-10T05:01:16;14.90;87.40
51725;DHT22;37801;53.224;6.552;2023-06-10T05:03:42;14.90;91.20
51725;DHT22;37801;53.224;6.552;2023-06-10T05:06:07;15.00;91.90
51725;DHT22;37801;53.224;6.552;2023-06-10T05:08:33;14.90;92.30
51725;DHT22;37801;53.224;6.552;2023-06-10T05:10:59;14.90;93.20
51725;DHT22;37801;53.224;6.552;2023-06-10T05:13:25;14.90;95.10
51725;DHT22;37801;53.224;6.552;2023-06-10T05:15:51;15.00;96.60
51725;DHT22;37801;53.224;6.552;2023-06-10T05:18:16;15.00;99.90
51725;DHT22;37801;53.224;6.552;2023-06-10T05:20:42;15.00;99.90
51725;DHT22;37801;53.224;6.552;2023-06-10T05:23:08;15.00;99.90
51725;DHT22;37801;53.224;6.552;2023-06-10T05:25:34;15.00;99.90
51725;DHT22;37801;53.224;6.552;2023-06-10T05:28:00;15.00;99.90
51725;DHT22;37801;53.224;6.552;2023-06-10T05:30:26;15.10;99.90
51725;DHT22;37801;53.224;6.552;2023-06-10T05:32:52;15.10;99.90
51725;DHT22;37801;53.224;6.552;2023-06-10T05:35:18;15.00;99.90
51725;DHT22;37801;53.224;6.552;2023-06-10T05:37:44;15.10;99.90
51725;DHT22;37801;53.224;6.552;2023-06-10T05:40:11;15.10;99.90
51725;DHT22;37801;53.224;6.552;2023-06-10T05:42:36;15.10;99.90
51725;DHT22;37801;53.224;6.552;2023-06-10T05:45:03;15.10;99.90
51725;DHT22;37801;53.224;6.552;2023-06-10T05:47:29;15.20;99.90
51725;DHT22;37801;53.224;6.552;2023-06-10T05:49:54;15.20;99.90
51725;DHT22;37801;53.224;6.552;2023-06-10T05:52:20;15.20;99.90
51725;DHT22;37801;53.224;6.552;2023-06-10T05:54:46;15.20;98.20
51725;DHT22;37801;53.224;6.552;2023-06-10T05:57:12;15.20;95.90
51725;DHT22;37801;53.224;6.552;2023-06-10T05:59:37;15.30;93.80
51725;DHT22;37801;53.224;6.552;2023-06-10T06:02:03;15.30;91.00
51725;DHT22;37801;53.224;6.552;2023-06-10T06:04:29;15.30;89.90
51725;DHT22;37801;53.224;6.552;2023-06-10T06:06:55;15.30;83.40
51725;DHT22;37801;53.224;6.552;2023-06-10T06:09:21;15.30;78.30
51725;DHT22;37801;53.224;6.552;2023-06-10T06:11:46;15.40;73.10
51725;DHT22;37801;53.224;6.552;2023-06-10T06:14:12;15.40;72.80
51725;DHT22;37801;53.224;6.552;2023-06-10T06:16:38;15.40;74.50
51725;DHT22;37801;53.224;6.552;2023-06-10T06:19:04;15.40;75.20
51725;DHT22;37801;53.224;6.552;2023-06-10T06:21:30;15.50;70.80
51725;DHT22;37801;53.224;6.552;2023-06-10T06:23:55;15.50;67.10
51725;DHT22;37801;53.224;6.552;2023-06-10T06:26:21;15.50;61.50
51725;DHT22;37801;53.224;6.552;2023-06-10T06:28:47;15.50;59.60
51725;DHT22;37801;53.224;6.552;2023-06-10T06:31:12;15.60;53.60
51725;DHT22;37801;53.224;6.552;2023-06-10T06:33:38;15.60;51.10
51725;DHT22;37801;53.224;6.552;2023-06-10T06:36:04;15.60;47.80
51725;DHT22;37801;53.224;6.552;2023-06-10T06:38:30;15.60;46.70
51725;DHT22;37801;53.224;6.552;2023-06-10T06:40:56;15.70;44.90
51725;DHT22;37801;53.224;6.552;2023-06-10T06:43:21;15.70;39.90
51725;DHT22;37801;53.224;6.552;2023-06-10T06:45:47;15.70;37.20
51725;DHT22;37801;53.224;6.552;2023-06-10T06:48:13;15.70;29.70
51725;DHT22;37801;53.224;6.552;2023-06-10T06:50:38;15.80;25.70
51725;DHT22;37801;53.224;6.552;2023-06-10T06:53:07;15.80;26.70
51725;DHT22;37801;53.224;6.552;2023-06-10T06:55:32;15.80;27.20
51725;DHT22;37801;53.224;6.552;2023-06-10T06:57:58;15.80;33.10
51725;DHT22;37801;53.224;6.552;2023-06-10T07:00:28;15.80;27.70
51725;DHT22;37801;53.224;6.552;2023-06-10T07:02:53;15.90;23.90
51725;DHT22;37801;53.224;6.552;2023-06-10T07:05:19;15.90;20.20
51725;DHT22;37801;53.224;6.552;2023-06-10T07:07:45;15.90;19.10
51725;DHT22;37801;53.224;6.552;2023-06-10T07:10:11;16.00;15.30
51725;DHT22;37801;53.224;6.552;2023-06-10T07:12:37;16.00;13.60
51725;DHT22;37801;53.224;6.552;2023-06-10T07:15:03;16.00;11.60
51725;DHT22;37801;53.224;6.552;2023-06-10T07:17:29;16.10;11.00
51725;DHT22;37801;53.224;6.552;2023-06-10T07:19:54;16.10;10.40
51725;DHT22;37801;53.224;6.552;2023-06-10T07:22:22;16.20;10.50
51725;DHT22;37801;53.224;6.552;2023-06-10T07:24:48;16.20;12.00
51725;DHT22;37801;53.224;6.552;2023-06-10T07:27:14;16.20;8.80
51725;DHT22;37801;53.224;6.552;2023-06-10T07:29:39;16.30;9.10
51725;DHT22;37801;53.224;6.552;2023-06-10T07:32:05;16.40;9.60
51725;DHT22;37801;53.224;6.552;2023-06-10T07:34:31;16.40;8.00
51725;DHT22;37801;53.224;6.552;2023-06-10T07:36:57;16.40;1.00
51725;DHT22;37801;53.224;6.552;2023-06-10T07:39:23;16.50;1.00
51725;DHT22;37801;53.224;6.552;2023-06-10T07:41:48;16.50;1.00
51725;DHT22;37801;53.224;6.552;2023-06-10T07:44:15;16.50;1.00
51725;DHT22;37801;53.224;6.552;2023-06-10T07:46:41;16.60;1.00
51725;DHT22;37801;53.224;6.552;2023-06-10T07:49:06;16.60;1.00
51725;DHT22;37801;53.224;6.552;2023-06-10T07:51:32;16.70;1.00
51725;DHT22;37801;53.224;6.552;2023-06-10T07:53:58;16.70;1.00
51725;DHT22;37801;53.224;6.552;2023-06-10T07:56:23;16.80;1.00
51725;DHT22;37801;53.224;6.552;2023-06-10T07:58:50;16.80;1.00
51725;DHT22;37801;53.224;6.552;2023-06-10T08:01:16;16.90;1.00
51725;DHT22;37801;53.224;6.552;2023-06-10T08:03:42;16.90;1.00
51725;DHT22;37801;53.224;6.552;2023-06-10T08:06:08;17.00;1.00
51725;DHT22;37801;53.224;6.552;2023-06-10T08:08:34;17.00;1.00
51725;DHT22;37801;53.224;6.552;2023-06-10T08:11:00;17.00;1.00
51725;DHT22;37801;53.224;6.552;2023-06-10T08:13:26;17.10;1.00
51725;DHT22;37801;53.224;6.552;2023-06-10T08:15:51;17.20;1.00
51725;DHT22;37801;53.224;6.552;2023-06-10T08:18:19;17.20;1.00
51725;DHT22;37801;53.224;6.552;2023-06-10T08:20:44;17.20;1.00
51725;DHT22;37801;53.224;6.552;2023-06-10T08:23:10;17.30;1.00
51725;DHT22;37801;53.224;6.552;2023-06-10T08:25:36;17.30;1.00
51725;DHT22;37801;53.224;6.552;2023-06-10T08:28:01;17.40;1.00
51725;DHT22;37801;53.224;6.552;2023-06-10T08:30:27;17.40;1.00
51725;DHT22;37801;53.224;6.552;2023-06-10T08:32:53;17.50;1.00
51725;DHT22;37801;53.224;6.552;2023-06-10T08:35:18;17.50;1.00
51725;DHT22;37801;53.224;6.552;2023-06-10T08:37:44;17.50;1.00
51725;DHT22;37801;53.224;6.552;2023-06-10T08:40:11;17.60;1.00
51725;DHT22;37801;53.224;6.552;2023-06-10T08:42:44;17.60;1.00
51725;DHT22;37801;53.224;6.552;2023-06-10T08:45:16;17.70;1.00
51725;DHT22;37801;53.224;6.552;2023-06-10T08:47:45;17.70;1.00
51725;DHT22;37801;53.224;6.552;2023-06-10T08:50:16;17.80;1.00
51725;DHT22;37801;53.224;6.552;2023-06-10T08:52:44;17.80;1.00
51725;DHT22;37801;53.224;6.552;2023-06-10T08:55:25;17.80;1.00
51725;DHT22;37801;53.224;6.552;2023-06-10T08:57:53;17.80;1.00
51725;DHT22;37801;53.224;6.552;2023-06-10T09:00:19;17.80;1.00
51725;DHT22;37801;53.224;6.552;2023-06-10T09:02:45;17.90;1.00
51725;DHT22;37801;53.224;6.552;2023-06-10T09:05:12;18.00;1.00
51725;DHT22;37801;53.224;6.552;2023-06-10T09:07:39;18.00;1.00
51725;DHT22;37801;53.224;6.552;2023-06-10T09:10:05;18.00;1.00
51725;DHT22;37801;53.224;6.552;2023-06-10T09:12:33;18.00;1.00
51725;DHT22;37801;53.224;6.552;2023-06-10T09:14:59;18.10;1.00
51725;DHT22;37801;53.224;6.552;2023-06-10T09:17:27;18.10;1.00
51725;DHT22;37801;53.224;6.552;2023-06-10T09:19:53;18.20;1.00
51725;DHT22;37801;53.224;6.552;2023-06-10T09:22:22;18.20;1.00
51725;DHT22;37801;53.224;6.552;2023-06-10T09:24:47;18.20;1.00
51725;DHT22;37801;53.224;6.552;2023-06-10T09:27:13;18.20;1.00
51725;DHT22;37801;53.224;6.552;2023-06-10T09:29:53;18.20;1.00
51725;DHT22;37801;53.224;6.552;2023-06-10T09:32:20;18.30;1.00
51725;DHT22;37801;53.224;6.552;2023-06-10T09:34:47;18.30;1.00
51725;DHT22;37801;53.224;6.552;2023-06-10T09:37:20;18.30;1.00
51725;DHT22;37801;53.224;6.552;2023-06-10T09:40:04;18.30;1.00
51725;DHT22;37801;53.224;6.552;2023-06-10T09:42:35;18.40;1.00
51725;DHT22;37801;53.224;6.552;2023-06-10T09:45:02;18.40;1.00
51725;DHT22;37801;53.224;6.552;2023-06-10T09:47:28;18.40;1.00
51725;DHT22;37801;53.224;6.552;2023-06-10T09:49:54;18.50;1.00
51725;DHT22;37801;53.224;6.552;2023-06-10T09:52:25;18.50;1.00
51725;DHT22;37801;53.224;6.552;2023-06-10T09:54:59;18.50;1.00
51725;DHT22;37801;53.224;6.552;2023-06-10T09:57:25;18.60;1.00
51725;DHT22;37801;53.224;6.552;2023-06-10T09:59:54;18.60;1.00
51725;DHT22;37801;53.224;6.552;2023-06-10T10:02:21;18.60;1.00
51725;DHT22;37801;53.224;6.552;2023-06-10T10:04:46;18.60;1.00
51725;DHT22;37801;53.224;6.552;2023-06-10T10:07:13;18.70;1.00
51725;DHT22;37801;53.224;6.552;2023-06-10T10:09:40;18.70;1.00
51725;DHT22;37801;53.224;6.552;2023-06-10T10:12:11;18.80;1.00
51725;DHT22;37801;53.224;6.552;2023-06-10T10:14:37;18.80;1.00
51725;DHT22;37801;53.224;6.552;2023-06-10T10:17:11;18.80;1.00
51725;DHT22;37801;53.224;6.552;2023-06-10T10:19:43;18.80;1.00
51725;DHT22;37801;53.224;6.552;2023-06-10T10:22:19;18.80;1.00
51725;DHT22;37801;53.224;6.552;2023-06-10T10:24:49;18.90;1.00
51725;DHT22;37801;53.224;6.552;2023-06-10T10:27:26;18.90;1.00
51725;DHT22;37801;53.224;6.552;2023-06-10T10:29:54;18.90;1.00
51725;DHT22;37801;53.224;6.552;2023-06-10T10:32:34;19.00;1.00
51725;DHT22;37801;53.224;6.552;2023-06-10T10:35:08;19.00;1.00
51725;DHT22;37801;53.224;6.552;2023-06-10T10:37:39;19.10;1.00
51725;DHT22;37801;53.224;6.552;2023-06-10T10:40:05;19.10;1.00
51725;DHT22;37801;53.224;6.552;2023-06-10T10:42:32;19.20;1.00
51725;DHT22;37801;53.224;6.552;2023-06-10T10:44:59;19.30;1.00
51725;DHT22;37801;53.224;6.552;2023-06-10T10:47:27;19.30;1.00
51725;DHT22;37801;53.224;6.552;2023-06-10T10:49:55;19.30;1.00
51725;DHT22;37801;53.224;6.552;2023-06-10T10:52:24;19.40;1.00
51725;DHT22;37801;53.224;6.552;2023-06-10T10:54:53;19.40;1.00
51725;DHT22;37801;53.224;6.552;2023-06-10T10:57:22;19.50;1.00
51725;DHT22;37801;53.224;6.552;2023-06-10T11:02:34;19.50;1.00
51725;DHT22;37801;53.224;6.552;2023-06-10T11:05:01;19.60;1.00
51725;DHT22;37801;53.224;6.552;2023-06-10T11:07:30;19.60;1.00
51725;DHT22;37801;53.224;6.552;2023-06-10T11:09:59;19.60;1.00
51725;DHT22;37801;53.224;6.552;2023-06-10T11:12:33;19.70;1.00
51725;DHT22;37801;53.224;6.552;2023-06-10T11:15:04;19.60;1.00
51725;DHT22;37801;53.224;6.552;2023-06-10T11:17:30;19.70;1.00
51725;DHT22;37801;53.224;6.552;2023-06-10T11:19:58;19.70;1.00
51725;DHT22;37801;53.224;6.552;2023-06-10T11:22:24;19.70;1.00
51725;DHT22;37801;53.224;6.552;2023-06-10T11:24:50;19.70;1.00
51725;DHT22;37801;53.224;6.552;2023-06-10T11:27:18;19.80;1.00
51725;DHT22;37801;53.224;6.552;2023-06-10T11:32:33;19.90;1.00
51725;DHT22;37801;53.224;6.552;2023-06-10T11:35:03;19.80;1.00
51725;DHT22;37801;53.224;6.552;2023-06-10T11:37:29;19.90;1.00
51725;DHT22;37801;53.224;6.552;2023-06-10T11:39:55;19.90;99.90
51725;DHT22;37801;53.224;6.552;2023-06-10T11:42:22;19.80;1.00
51725;DHT22;37801;53.224;6.552;2023-06-10T11:44:52;20.00;1.00
51725;DHT22;37801;53.224;6.552;2023-06-10T11:47:18;20.00;1.00
51725;DHT22;37801;53.224;6.552;2023-06-10T11:49:45;20.00;1.00
51725;DHT22;37801;53.224;6.552;2023-06-10T11:52:11;20.10;1.00
51725;DHT22;37801;53.224;6.552;2023-06-10T11:54:37;20.10;1.00
51725;DHT22;37801;53.224;6.552;2023-06-10T11:57:03;20.20;1.00
51725;DHT22;37801;53.224;6.552;2023-06-10T11:59:30;20.20;1.00
51725;DHT22;37801;53.224;6.552;2023-06-10T12:01:56;20.30;1.00
51725;DHT22;37801;53.224;6.552;2023-06-10T12:04:22;20.30;1.00
51725;DHT22;37801;53.224;6.552;2023-06-10T12:06:53;20.30;1.00
51725;DHT22;37801;53.224;6.552;2023-06-10T12:09:25;20.30;1.00
51725;DHT22;37801;53.224;6.552;2023-06-10T12:11:59;20.30;1.00
51725;DHT22;37801;53.224;6.552;2023-06-10T12:14:51;20.30;1.00
51725;DHT22;37801;53.224;6.552;2023-06-10T12:19:56;20.40;1.00
51725;DHT22;37801;53.224;6.552;2023-06-10T12:22:23;20.50;1.00
51725;DHT22;37801;53.224;6.552;2023-06-10T12:25:02;20.50;1.00
51725;DHT22;37801;53.224;6.552;2023-06-10T12:27:33;20.50;1.00
51725;DHT22;37801;53.224;6.552;2023-06-10T12:30:03;20.50;1.00
51725;DHT22;37801;53.224;6.552;2023-06-10T12:32:46;20.40;1.00
51725;DHT22;37801;53.224;6.552;2023-06-10T12:35:17;20.50;1.00
51725;DHT22;37801;53.224;6.552;2023-06-10T12:38:04;20.50;1.00
51725;DHT22;37801;53.224;6.552;2023-06-10T12:40:39;20.50;1.00
51725;DHT22;37801;53.224;6.552;2023-06-10T12:43:07;20.60;1.00
51725;DHT22;37801;53.224;6.552;2023-06-10T12:45:38;20.60;1.00
51725;DHT22;37801;53.224;6.552;2023-06-10T12:48:12;20.60;1.00
51725;DHT22;37801;53.224;6.552;2023-06-10T12:50:39;20.60;1.00
51725;DHT22;37801;53.224;6.552;2023-06-10T12:53:06;20.60;1.00
51725;DHT22;37801;53.224;6.552;2023-06-10T12:55:32;20.60;1.00
51725;DHT22;37801;53.224;6.552;2023-06-10T12:57:59;20.60;1.00
51725;DHT22;37801;53.224;6.552;2023-06-10T13:00:26;20.60;1.00
51725;DHT22;37801;53.224;6.552;2023-06-10T13:02:53;20.60;1.00
51725;DHT22;37801;53.224;6.552;2023-06-10T13:05:19;20.60;1.00
51725;DHT22;37801;53.224;6.552;2023-06-10T13:07:46;20.70;1.00
51725;DHT22;37801;53.224;6.552;2023-06-10T13:10:16;20.90;1.00
51725;DHT22;37801;53.224;6.552;2023-06-10T13:12:43;21.00;1.00
51725;DHT22;37801;53.224;6.552;2023-06-10T13:15:09;21.00;1.00
51725;DHT22;37801;53.224;6.552;2023-06-10T13:17:36;21.10;1.00
51725;DHT22;37801;53.224;6.552;2023-06-10T13:20:03;21.20;1.00
51725;DHT22;37801;53.224;6.552;2023-06-10T13:22:31;21.30;1.00
51725;DHT22;37801;53.224;6.552;2023-06-10T13:25:05;21.30;1.00
51725;DHT22;37801;53.224;6.552;2023-06-10T13:27:32;21.30;1.00
51725;DHT22;37801;53.224;6.552;2023-06-10T13:29:58;21.40;1.00
51725;DHT22;37801;53.224;6.552;2023-06-10T13:32:23;21.50;1.00
51725;DHT22;37801;53.224;6.552;2023-06-10T13:34:49;21.60;1.00
51725;DHT22;37801;53.224;6.552;2023-06-10T13:37:16;21.60;1.00
51725;DHT22;37801;53.224;6.552;2023-06-10T13:39:44;21.70;1.00
51725;DHT22;37801;53.224;6.552;2023-06-10T13:42:12;21.70;1.00
51725;DHT22;37801;53.224;6.552;2023-06-10T13:44:38;21.70;1.00
51725;DHT22;37801;53.224;6.552;2023-06-10T13:47:04;21.80;1.00
51725;DHT22;37801;53.224;6.552;2023-06-10T13:49:30;21.70;1.00
51725;DHT22;37801;53.224;6.552;2023-06-10T13:51:56;21.80;1.00
51725;DHT22;37801;53.224;6.552;2023-06-10T13:54:22;21.80;1.00
51725;DHT22;37801;53.224;6.552;2023-06-10T13:56:48;21.80;1.00
51725;DHT22;37801;53.224;6.552;2023-06-10T13:59:14;21.90;1.00
51725;DHT22;37801;53.224;6.552;2023-06-10T14:01:39;21.80;1.00
51725;DHT22;37801;53.224;6.552;2023-06-10T14:04:06;21.80;99.90
51725;DHT22;37801;53.224;6.552;2023-06-10T14:06:32;21.80;99.90
51725;DHT22;37801;53.224;6.552;2023-06-10T14:08:59;21.90;99.90
51725;DHT22;37801;53.224;6.552;2023-06-10T14:11:25;21.90;99.90
51725;DHT22;37801;53.224;6.552;2023-06-10T14:13:51;21.90;99.90
51725;DHT22;37801;53.224;6.552;2023-06-10T14:16:17;21.90;99.90
51725;DHT22;37801;53.224;6.552;2023-06-10T14:18:42;21.90;99.90
51725;DHT22;37801;53.224;6.552;2023-06-10T14:21:08;22.00;99.90
51725;DHT22;37801;53.224;6.552;2023-06-10T14:23:35;21.90;99.90
51725;DHT22;37801;53.224;6.552;2023-06-10T14:26:00;22.00;99.90
51725;DHT22;37801;53.224;6.552;2023-06-10T14:28:28;22.00;99.90
51725;DHT22;37801;53.224;6.552;2023-06-10T14:30:54;21.90;99.90
51725;DHT22;37801;53.224;6.552;2023-06-10T14:33:20;21.90;99.90
51725;DHT22;37801;53.224;6.552;2023-06-10T14:35:46;21.90;99.90
51725;DHT22;37801;53.224;6.552;2023-06-10T14:38:11;21.80;99.90
51725;DHT22;37801;53.224;6.552;2023-06-10T14:40:37;21.80;99.90
51725;DHT22;37801;53.224;6.552;2023-06-10T14:43:03;21.80;99.90
51725;DHT22;37801;53.224;6.552;2023-06-10T14:45:38;21.80;99.90
51725;DHT22;37801;53.224;6.552;2023-06-10T14:48:05;21.90;99.90
51725;DHT22;37801;53.224;6.552;2023-06-10T14:50:31;21.90;99.90
51725;DHT22;37801;53.224;6.552;2023-06-10T14:53:00;21.90;99.90
51725;DHT22;37801;53.224;6.552;2023-06-10T14:55:26;21.90;99.90
51725;DHT22;37801;53.224;6.552;2023-06-10T14:57:52;21.90;99.90
51725;DHT22;37801;53.224;6.552;2023-06-10T15:00:18;21.90;99.90
51725;DHT22;37801;53.224;6.552;2023-06-10T15:02:50;21.80;99.90
51725;DHT22;37801;53.224;6.552;2023-06-10T15:05:16;21.90;99.90
51725;DHT22;37801;53.224;6.552;2023-06-10T15:07:43;21.90;99.90
51725;DHT22;37801;53.224;6.552;2023-06-10T15:10:09;21.80;99.90
51725;DHT22;37801;53.224;6.552;2023-06-10T15:12:35;21.80;99.90
51725;DHT22;37801;53.224;6.552;2023-06-10T15:15:01;21.80;99.90
51725;DHT22;37801;53.224;6.552;2023-06-10T15:17:28;21.90;99.90
51725;DHT22;37801;53.224;6.552;2023-06-10T15:19:54;21.90;99.90
51725;DHT22;37801;53.224;6.552;2023-06-10T15:22:20;22.00;99.90
51725;DHT22;37801;53.224;6.552;2023-06-10T15:24:46;22.00;99.90
51725;DHT22;37801;53.224;6.552;2023-06-10T15:27:12;22.00;99.90
51725;DHT22;37801;53.224;6.552;2023-06-10T15:29:38;22.00;99.90
51725;DHT22;37801;53.224;6.552;2023-06-10T15:32:04;21.90;99.90
51725;DHT22;37801;53.224;6.552;2023-06-10T15:34:30;21.90;99.90
51725;DHT22;37801;53.224;6.552;2023-06-10T15:36:56;21.90;99.90
51725;DHT22;37801;53.224;6.552;2023-06-10T15:39:21;21.80;99.90
51725;DHT22;37801;53.224;6.552;2023-06-10T15:41:47;21.90;99.90
51725;DHT22;37801;53.224;6.552;2023-06-10T15:44:13;21.90;99.90
51725;DHT22;37801;53.224;6.552;2023-06-10T15:46:38;21.90;99.90
51725;DHT22;37801;53.224;6.552;2023-06-10T15:49:05;22.00;99.90
51725;DHT22;37801;53.224;6.552;2023-06-10T15:51:30;22.00;99.90
51725;DHT22;37801;53.224;6.552;2023-06-10T15:53:56;22.00;99.90